Time;durP1;ratioP1;P1;durP2;ratioP2;P2;SDS_P1;SDS_P2;PMS_P1;PMS_P2;Temp;Humidity;BMP_temperature;BMP_pressure;BME280_temperature;BME280_humidity;BME280_pressure;Samples;Min_cycle;Max_cycle;Signal;HPM_P1;HPM_P2
2022/06/03 00:01:41;;;;;;;192.77;36.07;;;12.10;1.00;;;;;;4996996;28;20302;-55
2022/06/03 00:04:26;;;;;;;151.87;26.47;;;12.30;1.00;;;;;;4999556;28;20216;-55
2022/06/03 00:07:03;;;;;;;73.97;13.77;;;11.90;1.00;;;;;;5009952;28;20216;-55
2022/06/03 00:09:50;;;;;;;71.27;12.93;;;11.90;1.00;;;;;;5011098;28;20219;-55
2022/06/03 00:12:15;;;;;;;163.13;27.63;;;12.00;1.80;;;;;;5002072;28;20310;-55
2022/06/03 00:15:14;;;;;;;192.83;35.43;;;11.80;1.00;;;;;;5001121;28;20918;-55
2022/06/03 00:18:36;;;;;;;83.43;15.37;;;11.80;1.00;;;;;;5004880;28;20316;-55
2022/06/03 00:21:05;;;;;;;115.23;19.77;;;11.80;1.40;;;;;;5008888;28;20581;-54
2022/06/03 00:23:56;;;;;;;107.67;18.23;;;11.90;1.00;;;;;;5010105;28;20243;-55
2022/06/03 00:26:47;;;;;;;130.50;23.20;;;12.00;1.50;;;;;;5010217;28;20589;-54
2022/06/03 00:29:25;;;;;;;104.77;17.40;;;11.90;1.00;;;;;;5003293;28;20744;-55
2022/06/03 00:32:09;;;;;;;97.20;16.57;;;11.80;1.00;;;;;;5001307;28;20570;-55
2022/06/03 00:35:05;;;;;;;125.80;21.23;;;11.80;1.00;;;;;;4999165;28;20885;-55
2022/06/03 00:37:48;;;;;;;91.60;15.73;;;9.90;1.00;;;;;;4991702;28;20225;-55
2022/06/03 00:41:10;;;;;;;143.93;23.80;;;11.40;16.50;;;;;;5000394;28;20209;-55
2022/06/03 00:44:04;;;;;;;139.73;22.93;;;11.60;1.00;;;;;;4995070;28;20223;-55
2022/06/03 00:46:45;;;;;;;122.87;19.93;;;11.70;24.70;;;;;;5000728;28;20220;-55
2022/06/03 00:49:39;;;;;;;143.17;23.53;;;11.40;27.90;;;;;;5005593;28;20299;-55
2022/06/03 00:52:23;;;;;;;110.97;17.83;;;11.50;1.00;;;;;;4996044;28;20611;-55
2022/06/03 00:55:16;;;;;;;154.10;24.13;;;11.40;1.70;;;;;;5008332;28;20208;-55
2022/06/03 00:58:03;;;;;;;113.70;18.00;;;11.60;45.80;;;;;;5000846;28;20220;-55
2022/06/03 01:01:12;;;;;;;94.00;14.63;;;11.30;7.10;;;;;;5005638;28;20219;-54
2022/06/03 01:04:09;;;;;;;128.10;19.43;;;11.30;1.80;;;;;;4968106;28;20223;-55
2022/06/03 01:06:57;;;;;;;51.97;8.63;;;11.20;2.60;;;;;;4983139;28;20712;-55
2022/06/03 01:09:44;;;;;;;152.27;23.90;;;11.30;51.20;;;;;;4995429;28;20631;-55
2022/06/03 01:12:41;;;;;;;127.37;19.27;;;11.10;12.20;;;;;;4993328;28;20221;-55
2022/06/03 01:15:41;;;;;;;81.40;13.00;;;11.00;21.70;;;;;;5006937;28;20210;-55
2022/06/03 01:18:21;;;;;;;108.13;16.67;;;11.00;16.80;;;;;;5005909;28;24502;-55
2022/06/03 01:21:30;;;;;;;103.17;16.37;;;11.00;17.70;;;;;;4995640;28;20200;-55
2022/06/03 01:24:40;;;;;;;123.60;19.13;;;11.00;13.60;;;;;;4984138;28;20282;-55
2022/06/03 01:27:31;;;;;;;129.80;19.70;;;10.90;69.20;;;;;;5002415;28;20224;-55
2022/06/03 01:30:06;;;;;;;142.43;21.67;;;10.90;26.70;;;;;;5002214;28;20722;-55
2022/06/03 01:33:11;;;;;;;187.40;27.83;;;10.90;24.90;;;;;;4997436;28;20203;-55
2022/06/03 01:36:01;;;;;;;62.27;10.03;;;10.90;24.00;;;;;;5000717;28;20279;-55
2022/06/03 01:38:47;;;;;;;99.93;15.00;;;10.80;20.50;;;;;;5001770;28;20212;-55
2022/06/03 01:41:53;;;;;;;49.57;7.63;;;10.70;75.80;;;;;;5007464;28;20204;-55
2022/06/03 01:44:36;;;;;;;57.10;9.13;;;10.70;44.40;;;;;;5010762;28;20314;-55
2022/06/03 01:47:39;;;;;;;95.17;14.33;;;10.80;78.50;;;;;;4995340;28;20693;-55
2022/06/03 01:50:36;;;;;;;105.77;15.63;;;10.70;38.10;;;;;;5008071;28;20203;-55
2022/06/03 01:53:14;;;;;;;94.60;13.97;;;10.70;38.60;;;;;;4994594;28;20212;-55
2022/06/03 01:55:58;;;;;;;83.07;12.77;;;10.60;33.50;;;;;;5000223;28;20207;-55
2022/06/03 01:59:08;;;;;;;164.27;24.10;;;10.60;82.00;;;;;;5001966;28;20628;-55
2022/06/03 02:01:40;;;;;;;128.50;18.73;;;10.50;51.00;;;;;;5000002;28;20862;-55
2022/06/03 02:04:43;;;;;;;83.23;12.57;;;10.60;46.80;;;;;;5001764;28;20235;-55
2022/06/03 02:08:00;;;;;;;109.07;16.13;;;10.60;82.10;;;;;;4994717;28;20237;-55
2022/06/03 02:10:29;;;;;;;146.77;21.83;;;10.50;91.50;;;;;;5000438;28;20212;-55
2022/06/03 02:13:13;;;;;;;72.20;11.00;;;10.40;63.30;;;;;;5004243;28;20221;-55
2022/06/03 02:16:16;;;;;;;41.70;6.57;;;10.50;61.10;;;;;;4995224;28;20842;-55
2022/06/03 02:19:04;;;;;;;49.30;7.57;;;10.50;48.70;;;;;;5003152;28;20229;-55
2022/06/03 02:21:41;;;;;;;133.33;18.90;;;10.40;54.60;;;;;;4996096;28;20263;-55
2022/06/03 02:24:12;;;;;;;86.87;12.73;;;10.30;66.10;;;;;;4999221;28;20252;-55
2022/06/03 02:26:53;;;;;;;60.77;9.53;;;10.30;64.50;;;;;;5000630;28;20219;-55
2022/06/03 02:32:42;;;;;;;182.60;25.67;;;10.40;61.20;;;;;;4998834;28;20220;-55
2022/06/03 02:35:20;;;;;;;125.00;17.77;;;10.40;49.40;;;;;;4994870;28;20213;-55
2022/06/03 02:38:29;;;;;;;146.50;20.80;;;10.40;60.10;;;;;;4994464;28;20216;-55
2022/06/03 02:41:07;;;;;;;110.70;16.07;;;10.40;57.70;;;;;;4976749;28;20200;-55
2022/06/03 02:44:03;;;;;;;127.23;18.33;;;10.30;69.00;;;;;;4994737;28;20743;-55
2022/06/03 02:46:52;;;;;;;54.10;8.33;;;10.30;70.10;;;;;;4999262;28;20219;-55
2022/06/03 02:49:40;;;;;;;123.63;17.30;;;10.20;91.20;;;;;;4998430;28;21315;-55
2022/06/03 02:52:05;;;;;;;117.23;16.67;;;10.30;64.10;;;;;;5004948;28;20216;-54
2022/06/03 02:55:09;;;;;;;87.70;12.93;;;10.20;75.40;;;;;;4997389;28;20227;-55
2022/06/03 02:57:36;;;;;;;84.80;12.37;;;10.20;77.00;;;;;;5000145;28;20238;-55
2022/06/03 03:00:17;;;;;;;146.87;21.27;;;10.20;72.30;;;;;;4994692;28;20566;-55
2022/06/03 03:03:20;;;;;;;147.00;20.83;;;10.10;73.90;;;;;;4994372;28;20435;-55
2022/06/03 03:05:49;;;;;;;72.57;11.10;;;10.10;81.50;;;;;;5011211;28;20180;-55
2022/06/03 03:08:50;;;;;;;63.07;9.20;;;10.10;85.90;;;;;;5011364;28;20191;-54
2022/06/03 03:11:51;;;;;;;89.57;12.83;;;10.10;84.50;;;;;;5006787;28;20211;-55
2022/06/03 03:14:38;;;;;;;98.90;14.00;;;10.40;98.10;;;;;;5005929;28;20212;-55
2022/06/03 03:17:25;;;;;;;141.80;19.87;;;10.20;99.90;;;;;;4998792;28;20221;-55
2022/06/03 03:20:20;;;;;;;42.03;6.33;;;10.20;86.90;;;;;;5011550;28;20379;-55
2022/06/03 03:23:16;;;;;;;66.27;9.87;;;11.10;86.40;;;;;;5010204;28;20387;-55
2022/06/03 03:26:20;;;;;;;68.53;10.17;;;10.20;90.20;;;;;;5007012;28;20215;-54
2022/06/03 03:29:07;;;;;;;40.90;6.40;;;10.20;84.30;;;;;;5000450;28;20228;-55
2022/06/03 03:32:05;;;;;;;66.47;9.93;;;11.30;81.90;;;;;;5004291;28;20255;-55
2022/06/03 03:34:48;;;;;;;74.43;10.93;;;10.30;81.40;;;;;;4998723;28;20216;-55
2022/06/03 03:37:38;;;;;;;70.23;10.30;;;10.30;85.80;;;;;;5015199;28;20220;-55
2022/06/03 03:40:32;;;;;;;86.00;12.63;;;10.30;82.20;;;;;;5006427;28;20216;-55
2022/06/03 03:43:31;;;;;;;66.07;9.87;;;10.20;90.00;;;;;;5005944;28;20236;-55
2022/06/03 03:46:29;;;;;;;90.07;13.13;;;10.30;91.20;;;;;;5010231;28;20315;-55
2022/06/03 03:49:23;;;;;;;48.90;7.40;;;10.30;92.30;;;;;;5001741;28;20430;-55
2022/06/03 03:52:35;;;;;;;86.77;13.17;;;10.40;93.80;;;;;;5005025;28;20282;-55
2022/06/03 03:55:00;;;;;;;61.23;9.33;;;10.40;97.60;;;;;;5010253;28;20212;-55
2022/06/03 03:58:01;;;;;;;79.50;11.70;;;10.40;95.60;;;;;;5007732;28;20569;-55
2022/06/03 04:00:58;;;;;;;73.17;11.03;;;10.40;96.60;;;;;;5003551;28;20231;-55
2022/06/03 04:03:45;;;;;;;120.50;17.30;;;10.50;99.90;;;;;;5003102;28;20224;-55
2022/06/03 04:06:31;;;;;;;113.43;16.67;;;10.50;99.90;;;;;;5003031;28;20223;-55
2022/06/03 04:09:50;;;;;;;51.17;7.80;;;10.60;99.90;;;;;;5006251;28;20308;-55
2022/06/03 04:12:58;;;;;;;117.60;16.93;;;10.60;99.30;;;;;;5002713;28;22811;-55
2022/06/03 04:15:44;;;;;;;80.37;11.63;;;9.70;96.50;;;;;;5002739;28;20398;-55
2022/06/03 04:18:37;;;;;;;107.47;15.67;;;11.00;99.90;;;;;;5001812;28;20311;-55
2022/06/03 04:21:36;;;;;;;47.47;7.47;;;10.80;95.30;;;;;;5007874;28;20212;-55
2022/06/03 04:24:33;;;;;;;53.13;8.30;;;10.90;94.90;;;;;;5009069;28;20677;-55
2022/06/03 04:27:40;;;;;;;82.30;12.43;;;11.10;99.90;;;;;;5002970;28;20355;-55
2022/06/03 04:30:39;;;;;;;112.03;16.33;;;11.00;91.00;;;;;;5007549;28;20230;-56
2022/06/03 04:33:39;;;;;;;34.90;5.50;;;11.10;91.90;;;;;;5008862;28;20212;-54
2022/06/03 04:36:14;;;;;;;131.03;19.00;;;11.10;87.00;;;;;;5013931;28;20250;-55
2022/06/03 04:39:08;;;;;;;90.70;13.67;;;11.20;80.70;;;;;;5012755;28;20199;-55
2022/06/03 04:42:17;;;;;;;77.00;12.00;;;11.30;85.60;;;;;;5015389;28;20586;-54
2022/06/03 04:45:05;;;;;;;67.93;10.60;;;11.30;80.10;;;;;;5009470;28;20176;-54
2022/06/03 04:48:11;;;;;;;69.97;10.93;;;11.60;72.60;;;;;;5006297;28;20216;-55
2022/06/03 04:51:30;;;;;;;33.07;5.67;;;11.50;73.50;;;;;;4982766;28;20279;-54
2022/06/03 04:54:24;;;;;;;36.87;6.23;;;11.60;73.10;;;;;;5006726;28;20689;-55
2022/06/03 04:56:52;;;;;;;63.00;9.63;;;11.80;63.80;;;;;;5007525;28;20314;-55
2022/06/03 04:59:31;;;;;;;189.73;28.60;;;11.70;64.20;;;;;;5005028;28;20196;-54
2022/06/03 05:02:20;;;;;;;43.80;6.93;;;11.80;63.10;;;;;;5009339;28;20306;-54
2022/06/03 05:05:17;;;;;;;106.67;16.13;;;11.90;61.40;;;;;;5003031;28;20220;-54
2022/06/03 05:08:21;;;;;;;111.93;16.60;;;12.10;54.70;;;;;;5011439;28;20216;-55
2022/06/03 05:11:28;;;;;;;123.30;18.57;;;12.10;52.20;;;;;;4998212;28;20653;-55
2022/06/03 05:14:15;;;;;;;130.57;19.40;;;12.30;41.80;;;;;;4989364;28;20223;-55
2022/06/03 05:17:01;;;;;;;60.73;9.60;;;12.40;24.90;;;;;;5006081;28;20300;-55
2022/06/03 05:20:09;;;;;;;67.30;10.60;;;12.50;13.60;;;;;;5010627;28;20599;-55
2022/06/03 05:22:57;;;;;;;91.10;13.80;;;12.60;3.80;;;;;;4972335;28;20221;-55
2022/06/03 05:25:40;;;;;;;126.83;18.83;;;12.70;1.00;;;;;;5004233;28;20207;-54
2022/06/03 05:28:25;;;;;;;100.87;15.43;;;12.90;1.00;;;;;;5007851;28;20216;-54
2022/06/03 05:31:34;;;;;;;278.77;41.83;;;13.00;1.00;;;;;;4987707;28;20230;-54
2022/06/03 05:34:28;;;;;;;90.22;13.82;;;13.20;1.00;;;;;;5005295;28;20215;-54
2022/06/03 05:37:18;;;;;;;94.87;14.47;;;13.40;1.00;;;;;;5000844;28;21673;-54
2022/06/03 05:39:58;;;;;;;126.80;19.40;;;13.30;1.00;;;;;;5002772;28;20738;-54
2022/06/03 05:42:43;;;;;;;141.75;21.00;;;13.50;1.00;;;;;;5001676;28;20310;-54
2022/06/03 05:45:30;;;;;;;92.40;14.48;;;13.50;1.00;;;;;;5002788;28;20633;-54
2022/06/03 05:48:07;;;;;;;100.65;15.57;;;13.70;1.00;;;;;;4993850;28;20217;-54
2022/06/03 05:50:58;;;;;;;70.55;11.30;;;13.80;1.00;;;;;;5008524;28;20764;-54
2022/06/03 05:53:52;;;;;;;76.72;12.00;;;13.90;1.00;;;;;;5008768;28;20180;-54
2022/06/03 05:56:38;;;;;;;113.28;16.73;;;14.10;99.90;;;;;;5003077;28;20220;-54
2022/06/03 05:59:09;;;;;;;70.05;11.10;;;14.20;1.00;;;;;;5004002;28;20701;-54
2022/06/03 06:02:05;;;;;;;182.63;27.98;;;14.40;1.00;;;;;;4995845;28;20215;-54
2022/06/03 06:05:03;;;;;;;180.60;27.92;;;14.40;3.10;;;;;;4986257;28;20358;-54
2022/06/03 06:07:50;;;;;;;148.88;23.10;;;14.70;56.50;;;;;;5001499;28;20216;-54
2022/06/03 06:10:34;;;;;;;165.57;25.38;;;14.70;4.20;;;;;;4993521;28;20559;-54
2022/06/03 06:13:33;;;;;;;127.22;19.38;;;14.80;94.20;;;;;;4995899;28;20224;-54
2022/06/03 06:16:08;;;;;;;201.05;30.98;;;14.90;1.00;;;;;;4996421;28;20218;-54
2022/06/03 06:18:48;;;;;;;104.75;16.60;;;15.20;1.00;;;;;;5005615;28;20458;-54
2022/06/03 06:21:31;;;;;;;246.93;38.85;;;15.50;99.90;;;;;;5002812;28;20212;-54
2022/06/03 06:24:11;;;;;;;99.60;14.93;;;15.60;1.00;;;;;;4988565;28;20216;-54
2022/06/03 06:26:42;;;;;;;73.35;11.88;;;15.60;1.00;;;;;;5012077;28;20226;-55
2022/06/03 06:29:44;;;;;;;221.55;34.17;;;16.00;1.00;;;;;;5000249;28;20220;-56
2022/06/03 06:32:25;;;;;;;90.78;13.93;;;15.90;99.90;;;;;;5005411;28;20204;-54
2022/06/03 06:35:09;;;;;;;71.90;11.18;;;16.10;1.00;;;;;;5007285;28;20685;-54
2022/06/03 06:37:52;;;;;;;84.32;13.77;;;16.20;1.00;;;;;;5001388;28;20220;-54
2022/06/03 06:40:37;;;;;;;124.00;18.17;;;16.20;99.90;;;;;;5001599;28;20246;-54
2022/06/03 06:43:08;;;;;;;119.35;18.13;;;16.40;99.90;;;;;;5004845;28;20220;-54
2022/06/03 06:45:59;;;;;;;138.57;21.23;;;16.50;99.90;;;;;;4990885;28;20216;-54
2022/06/03 06:48:45;;;;;;;88.35;14.30;;;16.40;99.90;;;;;;4996793;28;21250;-54
2022/06/03 06:51:26;;;;;;;104.25;16.05;;;16.50;41.30;;;;;;4999166;28;20423;-54
2022/06/03 06:54:01;;;;;;;67.18;10.93;;;16.60;1.00;;;;;;5007632;28;20220;-54
2022/06/03 06:56:53;;;;;;;120.65;19.45;;;16.60;1.00;;;;;;5009918;28;20813;-54
2022/06/03 06:59:29;;;;;;;52.50;9.00;;;16.70;1.00;;;;;;5004783;28;20232;-54
2022/06/03 07:02:03;;;;;;;59.42;9.93;;;16.80;1.00;;;;;;5011773;28;20214;-54
2022/06/03 07:04:34;;;;;;;137.00;22.67;;;16.90;1.00;;;;;;4998845;28;20647;-54
2022/06/03 07:07:12;;;;;;;54.17;9.18;;;16.90;1.00;;;;;;4997092;28;20682;-54
2022/06/03 07:09:52;;;;;;;99.90;16.42;;;16.30;1.00;;;;;;4998379;28;20216;-54
2022/06/03 07:12:35;;;;;;;88.32;14.40;;;17.00;1.00;;;;;;5001423;28;20219;-54
2022/06/03 07:15:25;;;;;;;70.40;11.95;;;17.00;1.00;;;;;;5006316;28;20670;-54
2022/06/03 07:21:15;;;;;;;64.30;10.75;;;17.50;97.60;;;;;;5009117;28;20223;-59
2022/06/03 07:23:48;;;;;;;128.18;21.02;;;17.90;1.00;;;;;;5002856;28;20207;-59
2022/06/03 07:26:37;;;;;;;147.98;23.77;;;18.00;1.00;;;;;;4995651;28;20223;-59
2022/06/03 07:29:11;;;;;;;64.80;10.90;;;18.30;99.90;;;;;;5005006;28;20235;-59
2022/06/03 07:31:49;;;;;;;63.15;10.60;;;18.40;99.90;;;;;;4999359;28;20219;-59
2022/06/03 07:34:32;;;;;;;91.85;15.30;;;18.50;99.90;;;;;;4997840;28;20228;-58
2022/06/03 07:37:05;;;;;;;225.45;36.35;;;18.50;99.90;;;;;;4988109;28;20950;-58
2022/06/03 07:40:06;;;;;;;68.18;11.50;;;18.30;99.90;;;;;;5002675;28;20219;-58
2022/06/03 07:43:04;;;;;;;85.45;14.38;;;18.30;99.90;;;;;;4999597;28;20215;-58
2022/06/03 07:45:40;;;;;;;103.45;17.58;;;18.30;99.90;;;;;;5000412;28;20217;-59
2022/06/03 07:48:12;;;;;;;109.45;18.55;;;18.30;99.90;;;;;;4990603;28;20244;-59
2022/06/03 07:51:12;;;;;;;173.57;29.52;;;18.30;99.90;;;;;;4992082;28;20433;-59
2022/06/03 07:53:47;;;;;;;146.73;24.73;;;18.40;99.90;;;;;;4978761;28;20188;-53
2022/06/03 07:56:26;;;;;;;156.27;26.17;;;18.30;99.90;;;;;;4993827;28;20222;-54
2022/06/03 07:59:07;;;;;;;97.95;16.50;;;18.40;99.90;;;;;;4994955;28;20224;-54
2022/06/03 08:01:38;;;;;;;112.95;19.13;;;18.50;99.90;;;;;;4990772;28;20217;-54
2022/06/03 08:04:07;;;;;;;94.05;16.05;;;18.30;99.90;;;;;;5006917;28;20208;-54
2022/06/03 08:12:11;;;;;;;73.03;12.55;;;18.50;99.90;;;;;;5005948;28;20279;-54
2022/06/03 08:14:36;;;;;;;84.80;14.93;;;18.50;99.90;;;;;;5003904;28;20721;-54
2022/06/03 08:17:04;;;;;;;156.35;26.15;;;18.50;99.90;;;;;;4997938;28;20204;-54
2022/06/03 08:19:33;;;;;;;145.68;23.98;;;18.60;99.90;;;;;;4998305;28;20221;-54
2022/06/03 08:22:04;;;;;;;209.50;34.92;;;18.60;99.90;;;;;;5005350;28;20635;-54
2022/06/03 08:24:34;;;;;;;194.48;31.73;;;18.80;99.90;;;;;;4984755;28;20212;-54
2022/06/03 08:27:05;;;;;;;157.23;25.90;;;19.00;99.90;;;;;;4995437;28;20220;-54
2022/06/03 08:29:38;;;;;;;142.60;23.48;;;18.80;99.90;;;;;;5003137;28;20188;-54
2022/06/03 08:32:28;;;;;;;103.57;17.95;;;18.90;99.90;;;;;;5007297;28;20264;-54
2022/06/03 08:34:56;;;;;;;94.50;16.02;;;18.90;98.50;;;;;;4983740;28;20212;-54
2022/06/03 08:37:25;;;;;;;97.85;15.93;;;19.20;77.70;;;;;;5013267;28;20228;-54
2022/06/03 08:39:56;;;;;;;99.00;16.75;;;19.20;89.10;;;;;;5017079;28;20582;-54
2022/06/03 08:42:25;;;;;;;133.68;22.80;;;19.20;85.50;;;;;;5014143;28;20216;-54
2022/06/03 08:45:09;;;;;;;60.67;10.65;;;19.20;96.60;;;;;;5011242;28;20236;-54
2022/06/03 08:47:50;;;;;;;97.00;16.75;;;19.50;99.90;;;;;;5016180;28;20228;-54
2022/06/03 08:50:27;;;;;;;106.32;18.02;;;19.40;88.80;;;;;;5017114;28;20180;-54
2022/06/03 08:53:02;;;;;;;60.20;10.90;;;19.50;56.20;;;;;;5007856;28;20219;-54
2022/06/03 08:55:51;;;;;;;93.53;16.08;;;19.60;49.10;;;;;;5004686;28;20701;-54
2022/06/03 08:58:24;;;;;;;106.25;17.58;;;19.70;20.00;;;;;;5013845;28;20224;-54
2022/06/03 09:01:22;;;;;;;88.05;15.02;;;19.60;24.40;;;;;;5015298;28;20220;-53
2022/06/03 09:03:55;;;;;;;89.65;15.48;;;19.70;20.00;;;;;;4994537;28;20255;-54
2022/06/03 09:06:50;;;;;;;84.47;14.35;;;19.70;25.90;;;;;;5010758;28;20205;-54
2022/06/03 09:09:25;;;;;;;115.70;19.10;;;19.90;20.90;;;;;;4992212;28;20740;-54
2022/06/03 09:12:03;;;;;;;69.75;12.25;;;19.90;36.30;;;;;;5013684;28;20251;-54
2022/06/03 09:14:29;;;;;;;135.43;22.52;;;19.80;25.00;;;;;;5010100;28;20203;-54
2022/06/03 09:17:13;;;;;;;86.50;15.20;;;19.90;97.20;;;;;;5015318;28;20228;-54
2022/06/03 09:19:42;;;;;;;108.70;18.55;;;20.00;1.00;;;;;;5009266;28;20212;-54
2022/06/03 09:22:13;;;;;;;127.18;21.75;;;20.10;1.00;;;;;;5011351;28;20693;-54
2022/06/03 09:24:41;;;;;;;120.72;20.90;;;20.10;1.00;;;;;;5013292;28;20307;-54
2022/06/03 09:27:10;;;;;;;104.50;18.15;;;20.30;1.00;;;;;;5014446;28;20307;-54
2022/06/03 09:29:37;;;;;;;84.93;14.93;;;20.20;14.00;;;;;;5014128;28;20663;-54
2022/06/03 09:32:06;;;;;;;81.07;14.70;;;20.40;6.70;;;;;;5007318;28;20610;-54
2022/06/03 09:34:40;;;;;;;119.03;20.60;;;20.50;1.00;;;;;;5008737;28;20231;-54
2022/06/03 09:37:07;;;;;;;144.38;25.05;;;20.60;42.30;;;;;;5009874;28;20227;-54
2022/06/03 09:39:32;;;;;;;87.28;15.35;;;20.60;1.00;;;;;;5015587;28;20248;-54
2022/06/03 09:41:59;;;;;;;71.68;12.75;;;20.60;1.00;;;;;;5007011;28;20213;-54
2022/06/03 09:44:26;;;;;;;136.50;23.35;;;20.70;1.00;;;;;;5004558;28;20192;-54
2022/06/03 09:46:59;;;;;;;107.20;19.00;;;21.00;1.00;;;;;;5009820;28;20319;-54
2022/06/03 09:49:26;;;;;;;107.50;18.88;;;21.00;1.00;;;;;;5013187;28;20228;-54
2022/06/03 09:52:03;;;;;;;86.90;15.43;;;21.00;1.00;;;;;;5016672;28;20217;-54
2022/06/03 09:54:38;;;;;;;121.93;21.15;;;21.10;1.00;;;;;;5010553;28;20208;-54
2022/06/03 09:57:07;;;;;;;76.38;14.02;;;21.50;29.60;;;;;;5015952;28;20228;-54
2022/06/03 09:59:35;;;;;;;102.10;18.58;;;21.30;1.00;;;;;;5007865;28;20239;-54
2022/06/03 10:02:02;;;;;;;122.30;22.08;;;21.40;1.00;;;;;;5003401;28;20209;-54
2022/06/03 10:04:28;;;;;;;227.95;41.95;;;21.50;1.00;;;;;;4992414;28;20661;-54
2022/06/03 10:06:54;;;;;;;106.38;20.17;;;21.80;19.20;;;;;;4999226;28;20682;-54
2022/06/03 10:17:49;;;;;;;188.98;36.33;;;22.20;1.00;;;;;;5000112;28;20299;-51
2022/06/03 10:20:16;;;;;;;147.02;28.23;;;22.20;1.00;;;;;;5002829;28;20546;-51
2022/06/03 10:22:44;;;;;;;115.32;21.08;;;22.30;1.00;;;;;;4999486;28;20224;-52
2022/06/03 10:25:11;;;;;;;149.13;26.45;;;22.20;1.00;;;;;;5006548;28;20216;-52
2022/06/03 10:27:36;;;;;;;104.50;20.33;;;22.40;1.00;;;;;;5007849;28;20216;-51
2022/06/03 10:30:05;;;;;;;102.45;19.77;;;22.40;1.00;;;;;;5003846;28;20257;-51
2022/06/03 10:32:31;;;;;;;96.82;18.98;;;22.60;1.00;;;;;;5008784;28;20664;-51
2022/06/03 10:35:13;;;;;;;156.57;28.73;;;22.70;1.00;;;;;;5005889;28;20188;-52
2022/06/03 10:37:50;;;;;;;127.20;24.98;;;22.70;1.00;;;;;;5001247;28;21308;-51
2022/06/03 10:40:17;;;;;;;205.32;38.05;;;22.70;1.00;;;;;;4996970;28;20212;-52
2022/06/03 10:42:46;;;;;;;78.93;15.85;;;22.90;1.00;;;;;;5004137;28;20273;-52
2022/06/03 10:45:12;;;;;;;156.80;29.83;;;22.90;1.00;;;;;;5003719;28;20290;-52
2022/06/03 10:47:40;;;;;;;111.22;23.05;;;23.10;1.00;;;;;;5000187;28;20246;-51
2022/06/03 10:50:13;;;;;;;124.32;25.27;;;23.20;1.00;;;;;;5006178;28;20177;-51
2022/06/03 11:01:42;;;;;;;109.53;22.88;;;23.40;1.00;;;;;;5003376;28;20222;-52
2022/06/03 11:04:24;;;;;;;159.18;29.90;;;23.70;1.00;;;;;;4992866;28;20224;-51
2022/06/03 11:06:49;;;;;;;88.07;17.38;;;23.40;1.00;;;;;;5005883;28;20234;-52
2022/06/03 11:09:15;;;;;;;178.57;32.05;;;23.60;1.00;;;;;;5003684;28;20689;-51
2022/06/03 11:11:45;;;;;;;177.25;33.38;;;23.50;1.00;;;;;;4999215;28;20199;-51
2022/06/03 11:14:30;;;;;;;170.65;32.22;;;23.60;1.00;;;;;;4997357;28;20172;-52
2022/06/03 11:17:19;;;;;;;106.72;21.05;;;23.60;1.00;;;;;;4993187;28;20224;-51
2022/06/03 11:19:52;;;;;;;102.43;19.45;;;23.70;1.00;;;;;;4997735;28;20239;-51
2022/06/03 11:22:24;;;;;;;101.35;18.88;;;23.80;1.00;;;;;;5001634;28;20978;-51
2022/06/03 11:25:03;;;;;;;115.82;21.55;;;23.90;1.00;;;;;;5003943;28;20205;-52
2022/06/03 11:27:55;;;;;;;179.73;35.95;;;24.00;1.00;;;;;;4996314;28;20581;-52
2022/06/03 11:30:33;;;;;;;136.23;25.95;;;24.10;1.00;;;;;;5001967;28;20296;-52
2022/06/03 11:33:03;;;;;;;87.35;17.50;;;24.10;1.00;;;;;;5005590;28;20216;-52
2022/06/03 11:35:52;;;;;;;145.27;27.55;;;24.10;1.00;;;;;;4998213;28;20844;-52
2022/06/03 11:38:35;;;;;;;119.65;24.60;;;24.00;1.00;;;;;;4997718;28;20226;-51
2022/06/03 11:41:05;;;;;;;82.25;17.52;;;24.20;1.00;;;;;;5006539;28;20548;-51
2022/06/03 11:43:39;;;;;;;272.30;49.90;;;24.30;1.00;;;;;;5003554;28;20216;-52
2022/06/03 11:46:10;;;;;;;195.48;37.75;;;24.60;1.00;;;;;;5005881;28;20265;-52
2022/06/03 11:48:36;;;;;;;189.82;36.58;;;;;;;;;;5002122;28;20215;-52
2022/06/03 11:51:02;;;;;;;88.47;18.52;;;24.70;1.00;;;;;;5011609;28;20764;-51
2022/06/03 11:53:31;;;;;;;200.85;39.08;;;24.90;99.90;;;;;;4998467;28;20519;-52
2022/06/03 11:56:00;;;;;;;132.27;26.27;;;25.20;1.00;;;;;;4995751;28;20303;-52
2022/06/03 11:58:42;;;;;;;146.15;31.38;;;25.20;1.00;;;;;;5003902;28;20235;-52
2022/06/03 12:01:15;;;;;;;142.13;27.73;;;25.40;1.00;;;;;;5005318;28;20749;-52
2022/06/03 12:03:51;;;;;;;115.82;23.25;;;25.50;1.00;;;;;;5003249;28;20216;-52
2022/06/03 12:06:37;;;;;;;96.05;19.50;;;25.40;1.00;;;;;;5007457;28;20248;-51
2022/06/03 12:09:39;;;;;;;143.45;31.48;;;25.80;1.00;;;;;;5013285;28;20418;-52
2022/06/03 12:15:32;;;;;;;113.18;24.73;;;26.10;1.00;;;;;;5009914;28;20645;-52
2022/06/03 12:18:07;;;;;;;124.88;28.65;;;26.40;1.00;;;;;;5011144;28;20252;-52
2022/06/03 12:20:35;;;;;;;158.07;34.35;;;27.60;1.00;;;;;;5014425;28;20269;-52
2022/06/03 12:23:12;;;;;;;125.25;25.58;;;26.60;1.00;;;;;;5007212;28;20196;-52
2022/06/03 12:25:40;;;;;;;155.52;30.92;;;27.00;1.00;;;;;;5009464;28;20219;-52
2022/06/03 12:28:15;;;;;;;96.88;21.88;;;27.10;1.00;;;;;;5018572;28;20231;-52
2022/06/03 12:30:54;;;;;;;105.07;23.02;;;27.30;1.00;;;;;;5008762;28;20216;-53
2022/06/03 12:33:33;;;;;;;96.10;20.77;;;27.40;1.00;;;;;;5014776;28;20561;-51
2022/06/03 12:35:59;;;;;;;102.65;21.67;;;27.60;1.00;;;;;;5009165;28;20716;-52
2022/06/03 12:38:31;;;;;;;129.30;27.92;;;27.40;1.00;;;;;;5012831;28;20255;-52
2022/06/03 12:41:00;;;;;;;134.55;29.92;;;27.30;1.00;;;;;;5012027;28;20215;-52
2022/06/03 12:43:28;;;;;;;142.07;31.73;;;27.30;1.00;;;;;;5013773;28;20255;-52
2022/06/03 12:45:58;;;;;;;142.40;29.25;;;27.50;1.00;;;;;;5008022;28;20563;-52
2022/06/03 12:48:51;;;;;;;157.25;31.65;;;27.60;1.00;;;;;;5001034;28;22023;-52
2022/06/03 12:51:28;;;;;;;135.50;28.63;;;27.60;1.00;;;;;;5007414;28;20222;-51
2022/06/03 12:54:02;;;;;;;126.15;27.67;;;27.60;1.00;;;;;;5004743;28;20216;-52
2022/06/03 12:56:40;;;;;;;181.43;35.10;;;28.80;1.00;;;;;;5002704;28;20831;-52
2022/06/03 12:59:11;;;;;;;117.57;25.00;;;27.80;1.00;;;;;;5007316;28;20229;-52
2022/06/03 13:01:45;;;;;;;142.88;31.15;;;27.90;1.00;;;;;;5003918;28;20212;-52
2022/06/03 13:04:36;;;;;;;151.05;35.10;;;27.90;1.00;;;;;;5000552;28;20240;-52
2022/06/03 13:07:16;;;;;;;128.18;31.50;;;28.60;1.00;;;;;;5001737;28;20213;-52
2022/06/03 13:09:53;;;;;;;140.27;33.45;;;28.60;1.00;;;;;;5005050;28;20534;-52
2022/06/03 13:12:41;;;;;;;112.05;28.25;;;28.80;1.00;;;;;;5005130;28;20362;-52
2022/06/03 13:15:22;;;;;;;126.05;31.63;;;29.10;1.00;;;;;;5002649;28;20228;-52
2022/06/03 13:18:10;;;;;;;113.53;28.33;;;29.40;1.00;;;;;;5008520;28;20207;-52
2022/06/03 13:20:38;;;;;;;149.23;32.78;;;29.40;1.00;;;;;;4997458;28;20260;-53
2022/06/03 13:23:19;;;;;;;268.98;54.28;;;29.40;1.00;;;;;;5001034;28;20184;-52
2022/06/03 13:25:50;;;;;;;132.93;33.97;;;29.10;1.00;;;;;;4996927;28;20220;-52
2022/06/03 13:28:37;;;;;;;145.13;35.38;;;29.10;1.00;;;;;;4996931;28;20216;-52
2022/06/03 13:31:19;;;;;;;173.05;40.80;;;29.10;1.00;;;;;;5004406;28;20209;-52
2022/06/03 13:34:09;;;;;;;162.18;37.47;;;29.50;1.00;;;;;;4996804;28;20764;-52
2022/06/03 13:36:53;;;;;;;120.57;27.10;;;29.50;1.00;;;;;;5004119;28;20244;-52
2022/06/03 13:39:27;;;;;;;146.95;36.20;;;29.80;1.00;;;;;;4999395;28;20494;-51
2022/06/03 13:45:03;;;;;;;90.78;24.30;;;29.30;1.00;;;;;;5006566;28;20815;-52
2022/06/03 13:47:35;;;;;;;125.55;32.38;;;30.40;1.00;;;;;;5008364;28;20212;-52
2022/06/03 13:50:18;;;;;;;168.70;44.25;;;30.40;1.00;;;;;;5003245;28;20243;-52
2022/06/03 13:52:47;;;;;;;112.30;30.75;;;30.40;1.00;;;;;;5001559;28;20700;-52
2022/06/03 13:55:28;;;;;;;88.55;24.65;;;30.40;1.00;;;;;;5011089;28;20208;-52
2022/06/03 13:58:16;;;;;;;123.47;33.95;;;30.70;1.00;;;;;;5001381;28;20224;-52
2022/06/03 14:00:51;;;;;;;94.05;28.05;;;30.30;1.00;;;;;;5006831;28;20779;-52
2022/06/03 14:03:26;;;;;;;155.73;42.50;;;30.70;1.00;;;;;;5001086;28;20748;-52
2022/06/03 14:05:51;;;;;;;93.20;29.00;;;31.30;1.00;;;;;;5001711;28;20220;-52
2022/06/03 14:08:26;;;;;;;144.65;44.00;;;31.50;1.00;;;;;;5002083;28;20487;-52
2022/06/03 14:11:15;;;;;;;137.35;36.35;;;31.70;1.00;;;;;;5001318;28;20215;-52
2022/06/03 14:13:55;;;;;;;123.25;76.35;;;32.30;1.00;;;;;;5006447;28;20231;-52
2022/06/03 14:16:39;;;;;;;154.60;90.95;;;32.60;1.00;;;;;;5006618;28;20212;-52
2022/06/03 14:19:08;;;;;;;144.45;112.38;;;32.80;1.00;;;;;;5000922;28;20327;-52
2022/06/03 14:21:33;;;;;;;124.78;112.40;;;33.20;1.00;;;;;;4997222;28;20210;-52